Time;durP1;ratioP1;P1;durP2;ratioP2;P2;SDS_P1;SDS_P2;PMS_P1;PMS_P2;Temp;Humidity;BMP_temperature;BMP_pressure;BME280_temperature;BME280_humidity;BME280_pressure;Samples;Min_cycle;Max_cycle;Signal;HPM_P1;HPM_P2
2023/12/12 00:02:01;;;;;;;12.13;2.30;;;6.00;84.70;;;;;;5014588;28;20103;-74
2023/12/12 00:04:26;;;;;;;10.70;2.63;;;6.00;84.40;;;;;;5020049;28;20548;-74
2023/12/12 00:06:52;;;;;;;9.17;2.83;;;6.00;84.10;;;;;;5027138;28;20420;-74
2023/12/12 00:09:18;;;;;;;12.03;2.50;;;6.00;84.00;;;;;;5027391;28;20053;-74
2023/12/12 00:11:43;;;;;;;11.63;2.70;;;6.00;84.10;;;;;;5026182;28;20057;-74
2023/12/12 00:14:09;;;;;;;11.57;2.30;;;5.90;84.10;;;;;;5026731;28;20077;-74
2023/12/12 00:16:35;;;;;;;14.87;2.27;;;5.90;84.00;;;;;;5026366;28;20475;-74
2023/12/12 00:19:01;;;;;;;14.50;3.00;;;5.90;84.00;;;;;;5026051;28;20501;-74
2023/12/12 00:21:27;;;;;;;13.27;2.80;;;5.90;84.00;;;;;;5025564;28;20414;-74
2023/12/12 00:23:53;;;;;;;12.03;2.63;;;5.90;84.00;;;;;;5025166;28;20064;-74
2023/12/12 00:26:18;;;;;;;7.93;2.37;;;5.80;84.00;;;;;;5029769;28;20100;-74
2023/12/12 00:28:44;;;;;;;11.20;2.70;;;5.80;84.10;;;;;;5026768;28;20103;-74
2023/12/12 00:31:10;;;;;;;11.27;2.67;;;5.70;84.00;;;;;;5046825;28;20044;-74
2023/12/12 00:33:36;;;;;;;10.33;2.47;;;5.60;84.00;;;;;;5040396;28;20288;-74
2023/12/12 00:36:02;;;;;;;8.67;2.10;;;5.60;84.00;;;;;;5025996;28;20530;-74
2023/12/12 00:38:30;;;;;;;10.70;2.30;;;5.50;84.00;;;;;;5026842;28;20064;-74
2023/12/12 00:40:56;;;;;;;8.00;2.27;;;5.50;84.00;;;;;;5026621;28;20386;-74
2023/12/12 00:43:23;;;;;;;8.93;2.40;;;5.50;84.10;;;;;;5027205;28;20051;-74
2023/12/12 00:45:48;;;;;;;11.87;2.87;;;5.40;84.30;;;;;;5026352;28;20063;-74
2023/12/12 00:48:14;;;;;;;10.27;2.40;;;5.30;84.20;;;;;;5027043;28;20368;-74
2023/12/12 00:50:40;;;;;;;16.00;2.33;;;5.30;84.20;;;;;;5025859;28;20508;-74
2023/12/12 00:53:05;;;;;;;12.30;2.17;;;5.20;84.30;;;;;;5025007;28;20057;-74
2023/12/12 00:55:31;;;;;;;11.73;2.47;;;5.10;84.40;;;;;;5025590;28;20046;-73
2023/12/12 00:57:57;;;;;;;9.50;2.30;;;5.00;84.40;;;;;;5026889;28;20083;-74
2023/12/12 01:00:22;;;;;;;12.23;2.13;;;5.00;84.40;;;;;;5027354;28;20440;-74
2023/12/12 01:02:49;;;;;;;12.70;2.40;;;5.00;84.50;;;;;;5019276;28;20061;-74
2023/12/12 01:05:14;;;;;;;11.43;2.30;;;4.90;84.60;;;;;;5023851;28;20053;-74
2023/12/12 01:07:40;;;;;;;11.20;2.17;;;4.90;84.60;;;;;;5026134;28;20057;-74
2023/12/12 01:10:06;;;;;;;10.83;2.10;;;4.90;84.50;;;;;;5026388;28;20057;-74
2023/12/12 01:12:31;;;;;;;10.33;2.10;;;4.80;84.50;;;;;;5026000;28;20053;-74
2023/12/12 01:15:00;;;;;;;13.70;2.33;;;4.80;84.50;;;;;;5025672;28;20096;-73
2023/12/12 01:17:26;;;;;;;13.00;2.30;;;4.70;84.60;;;;;;5024802;28;20048;-74
2023/12/12 01:19:52;;;;;;;10.27;2.50;;;4.70;84.60;;;;;;5025561;28;20046;-73
2023/12/12 01:22:18;;;;;;;9.87;2.13;;;4.70;84.50;;;;;;5025607;28;20088;-74
2023/12/12 01:24:44;;;;;;;8.57;2.33;;;4.50;84.50;;;;;;5025074;28;20049;-74
2023/12/12 01:27:10;;;;;;;10.50;2.60;;;4.50;84.60;;;;;;5028561;28;20077;-74
2023/12/12 01:29:36;;;;;;;11.23;2.67;;;4.40;84.60;;;;;;5023950;28;20053;-73
2023/12/12 01:32:02;;;;;;;11.73;2.73;;;4.40;84.70;;;;;;5025434;28;20389;-73
2023/12/12 01:34:28;;;;;;;9.00;2.67;;;4.30;84.70;;;;;;5026584;28;20057;-73
2023/12/12 01:36:54;;;;;;;11.23;2.97;;;4.20;84.60;;;;;;5037292;28;20445;-74
2023/12/12 01:39:20;;;;;;;10.43;2.50;;;4.10;84.70;;;;;;5026248;28;20103;-74
2023/12/12 01:41:47;;;;;;;14.33;2.73;;;4.00;84.80;;;;;;5023495;28;20235;-73
2023/12/12 01:44:13;;;;;;;10.33;2.70;;;3.90;84.60;;;;;;5025234;28;20495;-73
2023/12/12 01:46:39;;;;;;;14.43;3.30;;;3.90;84.70;;;;;;5025376;28;20100;-73
2023/12/12 01:49:06;;;;;;;11.67;2.70;;;3.80;84.80;;;;;;5026641;28;20045;-73
2023/12/12 01:51:32;;;;;;;8.63;2.87;;;3.70;84.80;;;;;;5025404;28;20057;-73
2023/12/12 01:54:00;;;;;;;9.63;3.30;;;3.60;84.80;;;;;;5024737;28;20103;-73
2023/12/12 01:56:28;;;;;;;9.03;2.80;;;3.60;84.80;;;;;;5026069;28;20148;-74
2023/12/12 01:58:56;;;;;;;12.93;3.03;;;3.50;84.80;;;;;;5025992;28;20088;-73
2023/12/12 02:01:22;;;;;;;12.77;3.77;;;3.40;84.80;;;;;;5024027;28;20536;-73
2023/12/12 02:03:49;;;;;;;11.80;3.40;;;3.30;84.90;;;;;;5024814;28;20049;-73
2023/12/12 02:06:22;;;;;;;10.23;3.10;;;3.30;84.90;;;;;;5025391;28;20140;-74
2023/12/12 02:08:51;;;;;;;16.80;3.23;;;3.30;85.00;;;;;;5025429;28;20061;-73
2023/12/12 02:11:17;;;;;;;13.90;3.57;;;3.30;85.10;;;;;;5018728;28;20061;-73
2023/12/12 02:13:43;;;;;;;8.77;2.77;;;3.20;85.10;;;;;;5005844;28;20133;-73
2023/12/12 02:16:09;;;;;;;13.97;3.93;;;3.20;85.30;;;;;;5005837;28;20450;-74
2023/12/12 02:18:35;;;;;;;12.87;3.37;;;3.10;85.20;;;;;;5019299;28;20067;-74
2023/12/12 02:21:01;;;;;;;12.87;3.90;;;3.10;85.20;;;;;;5023807;28;20088;-73
2023/12/12 02:23:31;;;;;;;16.23;3.90;;;3.10;85.20;;;;;;5025374;28;20057;-73
2023/12/12 02:25:58;;;;;;;13.97;4.23;;;3.00;85.20;;;;;;5036104;28;20061;-73
2023/12/12 02:28:24;;;;;;;12.80;4.00;;;3.00;85.20;;;;;;5047805;28;20049;-73
2023/12/12 02:30:50;;;;;;;14.13;3.90;;;2.90;85.30;;;;;;5046194;28;20055;-73
2023/12/12 02:33:15;;;;;;;14.37;3.90;;;2.90;85.40;;;;;;5041538;28;20056;-73
2023/12/12 02:35:41;;;;;;;13.40;4.27;;;2.90;85.40;;;;;;5035608;28;20423;-74
2023/12/12 02:38:07;;;;;;;13.73;4.40;;;2.90;85.40;;;;;;5037272;28;20352;-73
2023/12/12 02:40:33;;;;;;;11.83;4.23;;;2.90;85.50;;;;;;5036840;28;20172;-73
2023/12/12 02:42:58;;;;;;;25.07;4.77;;;2.90;85.60;;;;;;5047905;28;20400;-73
2023/12/12 02:45:24;;;;;;;14.37;4.50;;;2.90;85.70;;;;;;5047756;28;20057;-73
2023/12/12 02:47:50;;;;;;;18.60;4.80;;;2.80;85.60;;;;;;5056980;28;20075;-73
2023/12/12 02:50:17;;;;;;;19.67;4.67;;;2.80;85.70;;;;;;5048366;28;20385;-72
2023/12/12 02:52:43;;;;;;;10.60;4.37;;;2.80;85.70;;;;;;5056452;28;20044;-73
2023/12/12 02:55:08;;;;;;;14.53;4.63;;;2.80;85.60;;;;;;5047977;28;20063;-73
2023/12/12 02:57:34;;;;;;;12.17;4.80;;;2.70;85.70;;;;;;5046503;28;20139;-73
2023/12/12 03:00:00;;;;;;;10.57;4.93;;;2.70;85.60;;;;;;5049069;28;20136;-73
2023/12/12 03:02:25;;;;;;;12.80;4.73;;;2.60;85.60;;;;;;5047510;28;20040;-73
2023/12/12 03:04:51;;;;;;;16.03;4.70;;;2.50;85.50;;;;;;5047819;28;20084;-73
2023/12/12 03:07:17;;;;;;;11.43;4.43;;;2.50;85.50;;;;;;5047500;28;20051;-73
2023/12/12 03:09:42;;;;;;;19.80;5.23;;;2.50;85.60;;;;;;5047795;28;20459;-73
2023/12/12 03:12:08;;;;;;;15.77;5.17;;;2.50;85.70;;;;;;5047902;28;20114;-73
2023/12/12 03:14:36;;;;;;;14.73;4.67;;;2.50;85.60;;;;;;5048046;28;20056;-73
2023/12/12 03:17:01;;;;;;;10.87;4.87;;;2.50;85.70;;;;;;5048280;28;20107;-73
2023/12/12 03:19:28;;;;;;;13.93;4.10;;;2.50;85.70;;;;;;5047859;28;20127;-73
2023/12/12 03:21:53;;;;;;;15.10;4.63;;;2.50;85.80;;;;;;5046861;28;20048;-73
2023/12/12 03:24:19;;;;;;;14.33;4.77;;;2.50;85.90;;;;;;5048267;28;20488;-74
2023/12/12 03:26:45;;;;;;;15.03;4.60;;;2.50;85.90;;;;;;5046951;28;20123;-73
2023/12/12 03:29:11;;;;;;;14.47;4.93;;;2.50;86.00;;;;;;5048289;28;20053;-73
2023/12/12 03:31:36;;;;;;;15.17;5.20;;;2.50;86.00;;;;;;5047112;28;20057;-73
2023/12/12 03:34:02;;;;;;;11.40;4.83;;;2.50;86.00;;;;;;5039456;28;20041;-73
2023/12/12 03:36:28;;;;;;;15.43;4.60;;;2.50;86.00;;;;;;5031695;28;20115;-73
2023/12/12 03:38:54;;;;;;;10.67;4.40;;;2.50;85.90;;;;;;5037546;28;20051;-73
2023/12/12 03:41:19;;;;;;;11.97;5.20;;;2.50;86.00;;;;;;5032486;28;20056;-73
2023/12/12 03:43:45;;;;;;;12.87;4.53;;;2.50;85.90;;;;;;5053025;28;20106;-73
2023/12/12 03:46:15;;;;;;;15.80;5.13;;;2.50;85.90;;;;;;5047535;28;20135;-73
2023/12/12 03:48:40;;;;;;;18.17;5.27;;;2.50;85.90;;;;;;5047488;28;20057;-73
2023/12/12 03:51:10;;;;;;;13.87;5.40;;;2.40;85.90;;;;;;5056008;28;20436;-73
2023/12/12 03:53:36;;;;;;;19.40;5.77;;;2.40;86.00;;;;;;5045428;28;20049;-73
2023/12/12 03:56:03;;;;;;;14.97;5.30;;;2.40;86.00;;;;;;5045999;28;20037;-73
2023/12/12 03:58:29;;;;;;;17.93;5.60;;;2.40;86.00;;;;;;5045302;28;20041;-73
2023/12/12 04:00:55;;;;;;;14.87;5.93;;;2.30;86.00;;;;;;5047075;28;20057;-73
2023/12/12 04:03:21;;;;;;;17.50;6.57;;;2.40;86.10;;;;;;5046104;28;20562;-73
2023/12/12 04:05:46;;;;;;;17.90;6.80;;;2.40;86.20;;;;;;5045374;28;20048;-73
2023/12/12 04:08:13;;;;;;;18.57;6.00;;;2.40;86.10;;;;;;5048466;28;20052;-73
2023/12/12 04:10:38;;;;;;;17.93;6.73;;;2.30;86.10;;;;;;5046016;28;20064;-73
2023/12/12 04:13:04;;;;;;;17.77;6.50;;;2.40;86.20;;;;;;5047604;28;20049;-73
2023/12/12 04:15:29;;;;;;;19.70;6.60;;;2.40;86.30;;;;;;5047086;28;20056;-73
2023/12/12 04:17:55;;;;;;;22.53;6.70;;;2.40;86.30;;;;;;5046290;28;20059;-73
2023/12/12 04:20:21;;;;;;;16.97;5.83;;;2.40;86.30;;;;;;5046660;28;20068;-73
2023/12/12 04:22:47;;;;;;;20.90;6.13;;;2.40;86.30;;;;;;5046078;28;20396;-73
2023/12/12 04:25:13;;;;;;;20.87;5.93;;;2.50;86.40;;;;;;5046242;28;20040;-74
2023/12/12 04:35:28;;;;;;;21.63;6.40;;;2.50;86.50;;;;;;5066889;27;20752;-73
2023/12/12 04:37:54;;;;;;;18.77;6.03;;;2.40;86.40;;;;;;5002258;22;20049;-73
2023/12/12 04:40:19;;;;;;;19.60;6.97;;;2.50;86.50;;;;;;5022681;28;20049;-73
2023/12/12 04:42:45;;;;;;;20.80;7.53;;;2.50;86.50;;;;;;5012848;28;20671;-73
2023/12/12 04:45:11;;;;;;;18.67;7.47;;;2.50;86.50;;;;;;5012716;28;20052;-73
2023/12/12 04:47:36;;;;;;;22.70;7.87;;;2.50;86.50;;;;;;5026373;28;20413;-73
2023/12/12 04:50:03;;;;;;;22.80;8.90;;;2.50;86.50;;;;;;5023746;28;20452;-73
2023/12/12 04:52:29;;;;;;;21.30;7.80;;;2.40;86.40;;;;;;5023211;28;20052;-73
2023/12/12 04:54:54;;;;;;;20.13;8.53;;;2.40;86.50;;;;;;5024338;28;20045;-73
2023/12/12 04:57:20;;;;;;;19.73;8.13;;;2.40;86.40;;;;;;5025334;28;20041;-73
2023/12/12 04:59:46;;;;;;;23.00;8.70;;;2.30;86.40;;;;;;5025237;28;20077;-73
2023/12/12 05:02:11;;;;;;;21.80;8.30;;;2.30;86.40;;;;;;5024567;28;20052;-73
2023/12/12 05:04:37;;;;;;;22.87;10.20;;;2.30;86.40;;;;;;5026169;28;20037;-73
2023/12/12 05:07:04;;;;;;;30.93;11.60;;;2.30;86.40;;;;;;5006853;28;20460;-73
2023/12/12 05:09:29;;;;;;;25.93;8.00;;;2.30;86.40;;;;;;5029270;28;20049;-73
2023/12/12 05:11:55;;;;;;;20.67;7.90;;;2.20;86.40;;;;;;5022110;28;20265;-73
2023/12/12 05:14:21;;;;;;;20.10;9.63;;;2.20;86.40;;;;;;5022239;28;20199;-73
2023/12/12 05:16:47;;;;;;;19.10;8.07;;;2.30;86.50;;;;;;5006873;28;20064;-73
2023/12/12 05:19:13;;;;;;;25.33;8.13;;;2.20;86.60;;;;;;5024308;28;20049;-73
2023/12/12 05:21:39;;;;;;;19.70;6.97;;;2.20;86.50;;;;;;5012648;28;20516;-73
2023/12/12 05:24:06;;;;;;;21.47;8.00;;;2.20;86.60;;;;;;5006383;28;20065;-73
2023/12/12 05:26:31;;;;;;;24.50;7.80;;;2.20;86.50;;;;;;5005445;28;20596;-73
2023/12/12 05:28:57;;;;;;;24.33;8.23;;;2.30;86.50;;;;;;5006616;28;20073;-73
2023/12/12 05:31:24;;;;;;;26.23;8.07;;;2.30;86.60;;;;;;5016101;28;20132;-73
2023/12/12 05:33:49;;;;;;;19.43;9.00;;;2.40;86.70;;;;;;5008958;28;20199;-73
2023/12/12 05:36:15;;;;;;;20.37;8.07;;;2.40;86.70;;;;;;5004539;28;20125;-73
2023/12/12 05:38:41;;;;;;;19.27;8.27;;;2.40;86.70;;;;;;5019789;28;20049;-73
2023/12/12 05:41:06;;;;;;;16.93;8.40;;;2.40;86.70;;;;;;4998897;28;20084;-73
2023/12/12 05:43:32;;;;;;;22.40;9.40;;;2.40;86.70;;;;;;5021375;28;20076;-73
2023/12/12 05:45:58;;;;;;;24.47;8.80;;;2.50;86.80;;;;;;5023017;28;20515;-73
2023/12/12 05:48:24;;;;;;;20.73;9.70;;;2.50;86.90;;;;;;5022257;28;20610;-73
2023/12/12 05:50:49;;;;;;;22.20;9.60;;;2.50;86.90;;;;;;5022679;28;20052;-73
2023/12/12 05:53:15;;;;;;;26.17;9.83;;;2.50;86.90;;;;;;5022270;28;20045;-73
2023/12/12 05:55:41;;;;;;;27.03;10.57;;;2.60;86.90;;;;;;5023027;28;20075;-73
2023/12/12 05:58:06;;;;;;;25.80;17.50;;;2.60;86.90;;;;;;5023027;28;20061;-73
2023/12/12 06:00:32;;;;;;;31.17;12.00;;;2.70;87.00;;;;;;5021917;28;20054;-73
2023/12/12 06:02:58;;;;;;;31.40;11.43;;;2.70;87.00;;;;;;5022631;28;20045;-73
2023/12/12 06:05:24;;;;;;;31.00;12.47;;;2.70;87.10;;;;;;5025811;28;20056;-73
2023/12/12 06:07:49;;;;;;;25.47;12.47;;;2.80;87.00;;;;;;5026391;28;20200;-74
2023/12/12 06:10:15;;;;;;;34.20;12.23;;;2.80;87.20;;;;;;5026204;28;20552;-73
2023/12/12 06:12:41;;;;;;;25.93;12.00;;;2.90;87.20;;;;;;5026618;28;20057;-73
2023/12/12 06:15:07;;;;;;;31.40;13.30;;;2.90;87.10;;;;;;5027072;28;20053;-73
2023/12/12 06:17:36;;;;;;;34.77;17.27;;;2.90;87.10;;;;;;5026646;28;20176;-74
2023/12/12 06:20:03;;;;;;;32.63;12.90;;;2.90;87.10;;;;;;5027532;28;20136;-73
2023/12/12 06:22:28;;;;;;;39.97;13.00;;;2.90;87.00;;;;;;5026042;28;20496;-73
2023/12/12 06:24:54;;;;;;;39.23;13.20;;;2.80;87.00;;;;;;5027497;28;20108;-73
2023/12/12 06:27:20;;;;;;;41.10;14.83;;;2.80;87.00;;;;;;5024490;28;20072;-73
2023/12/12 06:29:46;;;;;;;37.77;14.80;;;2.70;87.00;;;;;;5019105;28;20056;-73
2023/12/12 06:32:12;;;;;;;40.40;16.60;;;2.70;87.00;;;;;;5010956;28;20129;-72
2023/12/12 06:34:38;;;;;;;41.67;14.20;;;2.70;87.00;;;;;;5025650;28;20128;-73
2023/12/12 06:37:05;;;;;;;45.37;13.90;;;2.70;87.00;;;;;;5008480;28;20050;-73
2023/12/12 06:39:31;;;;;;;42.03;13.93;;;2.50;86.90;;;;;;5011704;28;20405;-73
2023/12/12 06:41:56;;;;;;;55.57;23.67;;;2.50;86.90;;;;;;5015443;28;20050;-73
2023/12/12 06:44:22;;;;;;;53.40;26.50;;;2.50;86.90;;;;;;5011667;28;20057;-73
2023/12/12 06:46:48;;;;;;;62.33;29.50;;;2.50;87.10;;;;;;5029415;28;20038;-73
2023/12/12 06:49:13;;;;;;;45.37;17.37;;;2.60;87.10;;;;;;5029041;28;20038;-73
2023/12/12 06:51:39;;;;;;;47.37;17.90;;;2.60;87.10;;;;;;5029304;28;20049;-73
2023/12/12 06:54:04;;;;;;;48.87;18.63;;;2.50;87.10;;;;;;5028882;28;20057;-73
2023/12/12 06:56:31;;;;;;;49.50;19.00;;;2.60;87.20;;;;;;5026308;28;20043;-73
2023/12/12 06:58:57;;;;;;;57.00;19.23;;;2.70;87.30;;;;;;5028633;28;20049;-73
2023/12/12 07:01:22;;;;;;;52.93;18.77;;;2.70;87.30;;;;;;5028108;28;20037;-73
2023/12/12 07:03:48;;;;;;;66.77;20.57;;;2.80;87.40;;;;;;5041206;28;20033;-73
2023/12/12 07:06:21;;;;;;;59.97;19.20;;;2.80;87.50;;;;;;5027657;28;20187;-73
2023/12/12 07:08:47;;;;;;;62.73;21.07;;;2.80;87.50;;;;;;5027914;28;20109;-73
2023/12/12 07:11:12;;;;;;;51.90;21.00;;;2.90;87.60;;;;;;5027645;28;20041;-73
2023/12/12 07:13:38;;;;;;;140.67;118.53;;;2.90;87.50;;;;;;5027715;28;20037;-73
2023/12/12 07:16:04;;;;;;;80.97;27.00;;;3.00;87.60;;;;;;5027274;28;20053;-73
2023/12/12 07:18:30;;;;;;;92.07;30.93;;;3.00;87.60;;;;;;5014187;28;20045;-73
2023/12/12 07:20:57;;;;;;;80.57;25.53;;;3.00;87.70;;;;;;5015668;28;20071;-73
2023/12/12 07:23:23;;;;;;;71.93;28.17;;;3.00;87.60;;;;;;5028529;28;20100;-73
2023/12/12 07:25:49;;;;;;;80.13;30.77;;;3.00;87.60;;;;;;5028316;28;20045;-73
2023/12/12 07:28:15;;;;;;;99.87;38.40;;;3.00;87.70;;;;;;5028355;28;20061;-73
2023/12/12 07:30:42;;;;;;;146.80;38.90;;;3.10;87.70;;;;;;5011021;28;20049;-73
2023/12/12 07:33:08;;;;;;;323.47;54.80;;;3.10;87.70;;;;;;5017469;28;20148;-70
2023/12/12 07:35:33;;;;;;;321.53;52.57;;;3.10;87.80;;;;;;5017970;28;20539;-73
2023/12/12 07:38:01;;;;;;;327.33;55.23;;;3.10;87.90;;;;;;5012912;28;20053;-73
2023/12/12 07:40:27;;;;;;;516.03;84.47;;;3.20;87.80;;;;;;5027568;28;20049;-73
2023/12/12 07:42:53;;;;;;;484.17;64.50;;;3.20;87.90;;;;;;5018159;28;20116;-73
2023/12/12 07:45:19;;;;;;;647.10;69.20;;;3.20;87.90;;;;;;5017481;28;20052;-73
2023/12/12 07:47:45;;;;;;;812.27;107.40;;;3.20;87.90;;;;;;5024804;28;20045;-73
2023/12/12 07:50:10;;;;;;;604.53;76.03;;;3.20;88.00;;;;;;5024990;28;20053;-73
2023/12/12 07:52:36;;;;;;;601.60;92.57;;;3.30;88.00;;;;;;5040601;28;20100;-73
2023/12/12 07:55:02;;;;;;;1073.83;144.97;;;3.30;88.00;;;;;;5025075;28;20523;-73
2023/12/12 07:57:27;;;;;;;922.73;128.97;;;3.30;88.00;;;;;;5024243;28;20057;-73
2023/12/12 07:59:53;;;;;;;1007.37;149.43;;;3.30;88.00;;;;;;5024995;28;20136;-73
2023/12/12 08:02:21;;;;;;;694.87;94.50;;;3.30;88.00;;;;;;5017681;28;21093;-73
2023/12/12 08:04:47;;;;;;;701.87;101.40;;;3.30;88.10;;;;;;5024705;28;20049;-74
2023/12/12 08:07:13;;;;;;;875.67;125.80;;;3.30;88.00;;;;;;5023646;28;20191;-73
2023/12/12 08:09:39;;;;;;;819.10;105.50;;;3.30;88.10;;;;;;5025715;28;20057;-73
2023/12/12 08:12:05;;;;;;;1025.67;144.30;;;3.40;88.10;;;;;;5024137;28;20053;-73
2023/12/12 08:14:30;;;;;;;658.07;85.60;;;3.40;88.20;;;;;;5024115;28;20076;-73
2023/12/12 08:16:56;;;;;;;766.20;86.77;;;3.50;88.10;;;;;;5023822;28;20690;-73
2023/12/12 08:19:22;;;;;;;843.60;87.70;;;3.50;88.20;;;;;;5021860;28;20631;-73
2023/12/12 08:21:48;;;;;;;683.23;73.80;;;3.50;88.20;;;;;;5021440;28;20100;-73
2023/12/12 08:24:14;;;;;;;688.80;75.30;;;3.50;88.20;;;;;;5023845;28;20095;-73
2023/12/12 08:26:44;;;;;;;755.30;81.63;;;3.50;88.20;;;;;;5024011;28;20148;-73
2023/12/12 08:29:11;;;;;;;612.57;65.83;;;3.50;88.20;;;;;;5020291;28;20140;-73
2023/12/12 08:31:39;;;;;;;655.63;74.50;;;3.50;88.10;;;;;;5015439;28;20053;-73
2023/12/12 08:34:05;;;;;;;690.17;71.77;;;3.40;88.00;;;;;;5015018;28;20655;-73
2023/12/12 08:36:31;;;;;;;677.40;79.73;;;3.50;88.10;;;;;;5023385;28;20141;-73
2023/12/12 08:38:58;;;;;;;767.30;86.77;;;3.50;88.20;;;;;;5024588;28;20216;-73
2023/12/12 08:41:28;;;;;;;596.07;72.37;;;3.50;88.20;;;;;;5023298;28;20531;-73
2023/12/12 08:43:54;;;;;;;543.10;65.30;;;3.50;88.20;;;;;;5023839;28;20052;-74
2023/12/12 08:46:26;;;;;;;546.53;62.80;;;3.50;88.30;;;;;;5023028;28;20053;-73
2023/12/12 08:48:53;;;;;;;523.60;63.53;;;3.60;88.30;;;;;;5012789;28;20048;-73
2023/12/12 08:51:19;;;;;;;522.50;62.00;;;3.60;88.40;;;;;;5023487;28;20445;-73
2023/12/12 08:53:44;;;;;;;611.67;75.00;;;3.70;88.30;;;;;;5024263;28;20473;-74
2023/12/12 08:56:17;;;;;;;575.27;72.57;;;3.70;88.40;;;;;;5023242;28;20049;-73
2023/12/12 08:58:47;;;;;;;524.30;67.17;;;3.90;88.40;;;;;;5024557;28;20096;-73
2023/12/12 09:01:14;;;;;;;348.58;48.17;;;3.90;88.40;;;;;;5020679;28;20045;-73
2023/12/12 09:03:40;;;;;;;554.20;77.83;;;3.90;88.40;;;;;;5023408;28;20513;-73
2023/12/12 09:06:06;;;;;;;301.20;46.30;;;3.90;88.40;;;;;;5022680;28;20133;-73
2023/12/12 09:08:31;;;;;;;389.47;53.23;;;3.90;88.40;;;;;;5023747;28;20076;-73
2023/12/12 09:10:59;;;;;;;342.23;47.30;;;3.90;88.50;;;;;;5023203;28;20065;-74
2023/12/12 09:13:25;;;;;;;449.80;54.03;;;3.90;88.50;;;;;;5017139;28;20061;-73
2023/12/12 09:15:51;;;;;;;571.30;64.67;;;3.90;88.40;;;;;;5023300;28;20068;-73
2023/12/12 09:18:16;;;;;;;625.70;66.67;;;4.00;88.50;;;;;;5023403;28;20508;-73
2023/12/12 09:20:42;;;;;;;529.07;62.43;;;4.00;88.50;;;;;;5023534;28;20095;-74
2023/12/12 09:23:07;;;;;;;543.83;65.87;;;4.00;88.50;;;;;;5022189;28;20188;-72
2023/12/12 09:25:33;;;;;;;596.30;71.03;;;4.00;88.50;;;;;;5023222;28;20049;-73
2023/12/12 09:27:59;;;;;;;512.40;65.53;;;4.00;88.50;;;;;;5023734;28;20497;-73
2023/12/12 09:30:24;;;;;;;499.13;64.73;;;4.10;88.60;;;;;;5019649;28;20049;-73
2023/12/12 09:32:50;;;;;;;460.90;61.67;;;4.00;88.60;;;;;;5018451;28;20061;-73
2023/12/12 09:35:16;;;;;;;635.00;80.13;;;4.00;88.60;;;;;;5022904;28;20104;-73
2023/12/12 09:37:42;;;;;;;576.03;71.53;;;4.00;88.60;;;;;;5022563;28;20158;-73
2023/12/12 09:40:09;;;;;;;473.57;60.13;;;4.00;88.50;;;;;;5022095;28;20053;-72
2023/12/12 09:42:35;;;;;;;499.70;94.03;;;4.00;88.50;;;;;;5021230;28;20159;-74
2023/12/12 09:45:04;;;;;;;455.20;57.77;;;3.90;88.40;;;;;;5021655;28;20089;-75
2023/12/12 09:47:32;;;;;;;403.97;59.77;;;3.90;88.50;;;;;;5022994;28;20053;-74
2023/12/12 09:49:58;;;;;;;516.37;66.20;;;3.90;88.50;;;;;;5023580;28;20476;-74
2023/12/12 09:52:29;;;;;;;508.80;64.97;;;3.90;88.50;;;;;;5022798;28;20085;-74
2023/12/12 09:54:58;;;;;;;428.08;59.83;;;3.90;88.50;;;;;;5021421;28;20132;-74
2023/12/12 09:57:26;;;;;;;526.27;67.17;;;3.90;88.50;;;;;;4988375;28;20125;-74
2023/12/12 09:59:52;;;;;;;433.67;58.33;;;3.90;88.50;;;;;;5030434;28;20481;-74
2023/12/12 10:02:25;;;;;;;483.97;61.17;;;3.90;88.50;;;;;;5040390;28;20048;-74
2023/12/12 10:04:52;;;;;;;535.23;70.33;;;3.90;88.50;;;;;;5040606;28;20060;-74
2023/12/12 10:07:19;;;;;;;506.77;64.63;;;3.90;88.50;;;;;;5039937;28;20086;-74
2023/12/12 10:09:46;;;;;;;527.73;62.97;;;3.90;88.50;;;;;;5036925;28;20079;-75
2023/12/12 10:12:12;;;;;;;693.63;73.67;;;3.90;88.50;;;;;;5040983;28;20041;-74
2023/12/12 10:14:40;;;;;;;574.20;66.03;;;3.90;88.50;;;;;;5029595;28;20111;-74
2023/12/12 10:17:06;;;;;;;525.90;61.00;;;3.90;88.60;;;;;;5030539;28;20115;-74
2023/12/12 10:19:32;;;;;;;531.20;58.90;;;3.90;88.60;;;;;;5036264;28;20080;-74
2023/12/12 10:22:04;;;;;;;571.27;64.93;;;3.90;88.70;;;;;;5034757;28;20407;-75
2023/12/12 10:24:30;;;;;;;462.13;57.50;;;3.90;88.60;;;;;;5041751;28;20055;-75
2023/12/12 10:26:56;;;;;;;479.97;56.87;;;4.00;88.60;;;;;;5042158;28;20050;-74
2023/12/12 10:29:23;;;;;;;552.30;62.47;;;4.00;88.60;;;;;;5031471;28;20056;-74
2023/12/12 10:31:49;;;;;;;469.93;55.47;;;4.00;88.60;;;;;;5042228;28;20055;-74
2023/12/12 10:34:17;;;;;;;613.83;70.33;;;4.00;88.60;;;;;;5030983;28;20045;-74
2023/12/12 10:36:46;;;;;;;561.60;66.80;;;4.00;88.60;;;;;;5041627;28;20491;-74
2023/12/12 10:39:13;;;;;;;497.13;61.17;;;4.00;88.60;;;;;;5029728;28;20069;-74
2023/12/12 10:41:38;;;;;;;548.40;59.30;;;4.00;88.50;;;;;;5021095;28;20497;-74
2023/12/12 10:44:06;;;;;;;545.47;59.00;;;4.00;88.60;;;;;;5022767;28;20088;-74
2023/12/12 10:46:36;;;;;;;455.80;52.73;;;4.00;88.70;;;;;;5019696;28;20100;-75
2023/12/12 10:49:03;;;;;;;480.93;50.83;;;4.00;88.60;;;;;;5023268;28;20053;-74
2023/12/12 10:51:28;;;;;;;503.23;54.00;;;4.00;88.60;;;;;;5025514;28;20445;-75
2023/12/12 10:53:55;;;;;;;444.37;48.90;;;4.00;88.70;;;;;;5028189;28;20346;-74
2023/12/12 10:56:21;;;;;;;548.63;57.03;;;4.00;88.60;;;;;;5024065;28;20049;-74
2023/12/12 10:58:51;;;;;;;441.40;49.80;;;4.00;88.60;;;;;;5043875;28;20076;-75
2023/12/12 11:01:17;;;;;;;410.83;48.40;;;4.00;88.60;;;;;;5025222;28;20056;-74
2023/12/12 11:03:43;;;;;;;342.03;48.47;;;4.00;88.60;;;;;;5025388;28;20049;-74
2023/12/12 11:06:09;;;;;;;457.43;57.67;;;4.00;88.70;;;;;;5024760;28;20046;-74
2023/12/12 11:08:35;;;;;;;559.17;66.50;;;4.10;88.70;;;;;;5025783;28;20059;-74
2023/12/12 11:11:05;;;;;;;490.23;62.47;;;4.10;88.80;;;;;;5025226;28;20075;-75
2023/12/12 11:13:34;;;;;;;707.17;83.13;;;4.20;88.70;;;;;;5026233;28;20467;-74
2023/12/12 11:16:03;;;;;;;547.57;65.27;;;4.20;88.70;;;;;;5025003;28;20136;-75
2023/12/12 11:18:29;;;;;;;501.83;59.93;;;4.20;88.70;;;;;;5025196;28;20057;-75
2023/12/12 11:20:55;;;;;;;422.63;54.67;;;4.20;88.70;;;;;;5026101;28;20081;-74
2023/12/12 11:23:57;;;;;;;318.80;48.30;;;4.20;88.70;;;;;;5025837;28;20103;-74
2023/12/12 11:26:25;;;;;;;288.83;46.97;;;4.30;88.70;;;;;;4963113;28;20051;-74
2023/12/12 11:28:53;;;;;;;222.77;45.17;;;4.30;88.80;;;;;;5027563;28;20045;-74
2023/12/12 11:31:27;;;;;;;302.20;49.90;;;4.30;88.80;;;;;;5043297;28;20037;-74
2023/12/12 11:34:09;;;;;;;219.83;49.47;;;4.40;88.90;;;;;;5040652;28;20064;-75
2023/12/12 11:36:55;;;;;;;193.90;45.40;;;4.40;88.90;;;;;;5037117;28;20045;-75
2023/12/12 11:39:24;;;;;;;234.43;47.03;;;4.40;88.90;;;;;;5021573;28;20037;-75
2023/12/12 11:41:52;;;;;;;189.03;45.77;;;4.50;88.90;;;;;;5022989;28;20137;-75
2023/12/12 11:44:19;;;;;;;149.57;43.30;;;4.50;89.00;;;;;;5032314;28;20084;-74
2023/12/12 11:46:45;;;;;;;129.97;41.40;;;4.50;89.00;;;;;;5039785;28;20052;-74
2023/12/12 11:49:37;;;;;;;119.53;40.43;;;4.60;89.00;;;;;;5036896;28;20064;-74
2023/12/12 11:52:03;;;;;;;101.47;37.57;;;4.60;89.00;;;;;;5022880;28;20151;-74
2023/12/12 11:54:29;;;;;;;97.30;36.43;;;4.70;89.00;;;;;;5025155;28;20148;-75
2023/12/12 11:56:58;;;;;;;96.33;36.03;;;4.70;89.00;;;;;;5024937;28;20108;-75
2023/12/12 11:59:25;;;;;;;99.57;37.83;;;4.70;89.00;;;;;;5025237;28;20041;-75
2023/12/12 12:01:52;;;;;;;98.97;41.83;;;4.70;89.00;;;;;;5024209;28;20053;-75
2023/12/12 12:04:18;;;;;;;110.63;42.23;;;4.70;89.00;;;;;;5015442;28;20080;-74
2023/12/12 12:06:45;;;;;;;112.37;44.50;;;4.70;89.00;;;;;;5024482;28;20184;-75
2023/12/12 12:09:15;;;;;;;97.83;41.70;;;4.80;89.00;;;;;;5024546;28;20484;-73
2023/12/12 12:11:52;;;;;;;87.40;39.80;;;4.90;89.00;;;;;;5023102;28;20100;-75
2023/12/12 12:14:24;;;;;;;92.77;41.03;;;4.90;89.10;;;;;;5024951;28;20053;-74
2023/12/12 12:16:53;;;;;;;96.50;41.73;;;4.90;89.10;;;;;;5023111;28;20465;-75
2023/12/12 12:19:32;;;;;;;91.93;40.13;;;4.90;89.00;;;;;;5024698;28;20341;-75
2023/12/12 12:22:12;;;;;;;95.93;42.37;;;4.90;89.00;;;;;;5025204;28;20399;-75
2023/12/12 12:24:42;;;;;;;103.73;45.67;;;5.00;89.00;;;;;;5024904;28;20064;-75
2023/12/12 12:27:08;;;;;;;99.60;45.33;;;5.00;89.00;;;;;;5022755;28;20056;-75
2023/12/12 12:29:33;;;;;;;116.40;49.60;;;5.00;89.00;;;;;;5002096;28;20041;-75
2023/12/12 12:32:17;;;;;;;110.07;50.13;;;5.00;89.00;;;;;;5024304;28;20562;-75
2023/12/12 12:34:44;;;;;;;114.33;50.07;;;5.00;89.00;;;;;;5024801;28;20053;-74
2023/12/12 12:37:31;;;;;;;112.83;50.50;;;5.00;89.10;;;;;;5023516;28;20115;-75
2023/12/12 12:39:57;;;;;;;116.40;52.20;;;5.00;89.10;;;;;;5024850;28;20064;-75
2023/12/12 12:42:35;;;;;;;131.63;56.57;;;5.00;89.00;;;;;;5023777;28;20053;-74
2023/12/12 12:45:02;;;;;;;131.77;59.60;;;5.00;89.00;;;;;;5022461;28;20064;-74